sensor_id;sensor_type;location;lat;lon;timestamp;P1;durP1;ratioP1;P2;durP2;ratioP2
57822;SDS011;43650;48.064;20.624;2023-04-15T00:00:27;21.55;;;12.77;;
57822;SDS011;43650;48.064;20.624;2023-04-15T00:01:28;16.73;;;10.07;;
57822;SDS011;43650;48.064;20.624;2023-04-15T00:02:29;21.30;;;11.80;;
57822;SDS011;43650;48.064;20.624;2023-04-15T00:03:30;18.73;;;10.05;;
57822;SDS011;43650;48.064;20.624;2023-04-15T00:04:30;18.43;;;10.50;;
57822;SDS011;43650;48.064;20.624;2023-04-15T00:05:32;17.83;;;9.30;;
57822;SDS011;43650;48.064;20.624;2023-04-15T00:06:33;17.00;;;9.13;;
57822;SDS011;43650;48.064;20.624;2023-04-15T00:07:34;19.27;;;10.23;;
57822;SDS011;43650;48.064;20.624;2023-04-15T00:08:34;17.25;;;9.45;;
57822;SDS011;43650;48.064;20.624;2023-04-15T00:09:35;13.93;;;7.47;;
57822;SDS011;43650;48.064;20.624;2023-04-15T00:10:35;13.00;;;7.53;;
57822;SDS011;43650;48.064;20.624;2023-04-15T00:11:36;10.77;;;7.07;;
57822;SDS011;43650;48.064;20.624;2023-04-15T00:12:36;8.50;;;5.57;;
57822;SDS011;43650;48.064;20.624;2023-04-15T00:13:40;15.35;;;7.25;;
57822;SDS011;43650;48.064;20.624;2023-04-15T00:14:40;14.27;;;6.35;;
57822;SDS011;43650;48.064;20.624;2023-04-15T00:15:41;11.50;;;6.05;;
57822;SDS011;43650;48.064;20.624;2023-04-15T00:16:42;11.20;;;6.93;;
57822;SDS011;43650;48.064;20.624;2023-04-15T00:17:42;12.87;;;7.27;;
57822;SDS011;43650;48.064;20.624;2023-04-15T00:18:43;20.87;;;11.93;;
57822;SDS011;43650;48.064;20.624;2023-04-15T00:19:43;18.23;;;10.23;;
57822;SDS011;43650;48.064;20.624;2023-04-15T00:20:44;19.02;;;9.27;;
57822;SDS011;43650;48.064;20.624;2023-04-15T00:21:45;15.37;;;9.33;;
57822;SDS011;43650;48.064;20.624;2023-04-15T00:22:46;15.63;;;8.35;;
57822;SDS011;43650;48.064;20.624;2023-04-15T00:23:46;14.47;;;7.37;;
57822;SDS011;43650;48.064;20.624;2023-04-15T00:24:54;13.27;;;7.65;;
57822;SDS011;43650;48.064;20.624;2023-04-15T00:25:54;17.55;;;8.45;;
57822;SDS011;43650;48.064;20.624;2023-04-15T00:26:55;15.85;;;8.30;;
57822;SDS011;43650;48.064;20.624;2023-04-15T00:28:57;11.93;;;6.87;;
57822;SDS011;43650;48.064;20.624;2023-04-15T00:29:57;14.30;;;7.43;;
57822;SDS011;43650;48.064;20.624;2023-04-15T00:30:58;12.07;;;7.80;;
57822;SDS011;43650;48.064;20.624;2023-04-15T00:31:58;14.40;;;8.30;;
57822;SDS011;43650;48.064;20.624;2023-04-15T00:32:59;16.80;;;9.05;;
57822;SDS011;43650;48.064;20.624;2023-04-15T00:34:01;24.85;;;10.57;;
57822;SDS011;43650;48.064;20.624;2023-04-15T00:35:01;20.30;;;9.83;;
57822;SDS011;43650;48.064;20.624;2023-04-15T00:36:02;15.93;;;9.52;;
57822;SDS011;43650;48.064;20.624;2023-04-15T00:37:03;16.37;;;8.65;;
57822;SDS011;43650;48.064;20.624;2023-04-15T00:38:04;17.73;;;9.80;;
57822;SDS011;43650;48.064;20.624;2023-04-15T00:39:07;18.05;;;9.13;;
57822;SDS011;43650;48.064;20.624;2023-04-15T00:40:09;13.75;;;7.90;;
57822;SDS011;43650;48.064;20.624;2023-04-15T00:41:11;17.90;;;9.82;;
57822;SDS011;43650;48.064;20.624;2023-04-15T00:42:12;18.92;;;10.45;;
57822;SDS011;43650;48.064;20.624;2023-04-15T00:43:12;25.23;;;13.17;;
57822;SDS011;43650;48.064;20.624;2023-04-15T00:44:13;25.00;;;13.07;;
57822;SDS011;43650;48.064;20.624;2023-04-15T00:45:13;23.17;;;10.93;;
57822;SDS011;43650;48.064;20.624;2023-04-15T00:46:14;13.80;;;8.55;;
57822;SDS011;43650;48.064;20.624;2023-04-15T00:47:15;19.33;;;10.90;;
57822;SDS011;43650;48.064;20.624;2023-04-15T00:48:16;21.12;;;10.88;;
57822;SDS011;43650;48.064;20.624;2023-04-15T00:49:17;17.98;;;8.82;;
57822;SDS011;43650;48.064;20.624;2023-04-15T00:50:18;13.55;;;7.43;;
57822;SDS011;43650;48.064;20.624;2023-04-15T00:51:18;11.33;;;6.93;;
57822;SDS011;43650;48.064;20.624;2023-04-15T00:52:19;10.00;;;6.80;;
57822;SDS011;43650;48.064;20.624;2023-04-15T00:53:20;12.55;;;6.43;;
57822;SDS011;43650;48.064;20.624;2023-04-15T00:54:20;9.77;;;5.60;;
57822;SDS011;43650;48.064;20.624;2023-04-15T00:55:21;9.50;;;5.90;;
57822;SDS011;43650;48.064;20.624;2023-04-15T00:56:22;9.57;;;6.53;;
57822;SDS011;43650;48.064;20.624;2023-04-15T00:57:23;9.95;;;6.60;;
57822;SDS011;43650;48.064;20.624;2023-04-15T00:58:24;12.50;;;6.00;;
57822;SDS011;43650;48.064;20.624;2023-04-15T00:59:26;11.10;;;6.82;;
57822;SDS011;43650;48.064;20.624;2023-04-15T01:00:28;9.82;;;6.28;;
57822;SDS011;43650;48.064;20.624;2023-04-15T01:01:29;9.57;;;5.32;;
57822;SDS011;43650;48.064;20.624;2023-04-15T01:02:30;9.30;;;5.00;;
57822;SDS011;43650;48.064;20.624;2023-04-15T01:03:31;9.80;;;5.82;;
57822;SDS011;43650;48.064;20.624;2023-04-15T01:04:32;10.10;;;5.77;;
57822;SDS011;43650;48.064;20.624;2023-04-15T01:05:32;11.83;;;7.07;;
57822;SDS011;43650;48.064;20.624;2023-04-15T01:06:33;14.93;;;7.90;;
57822;SDS011;43650;48.064;20.624;2023-04-15T01:07:33;15.20;;;7.27;;
57822;SDS011;43650;48.064;20.624;2023-04-15T01:08:34;14.93;;;7.27;;
57822;SDS011;43650;48.064;20.624;2023-04-15T01:09:34;18.73;;;6.60;;
57822;SDS011;43650;48.064;20.624;2023-04-15T01:10:35;13.23;;;7.20;;
57822;SDS011;43650;48.064;20.624;2023-04-15T01:11:35;12.85;;;6.28;;
57822;SDS011;43650;48.064;20.624;2023-04-15T01:12:36;19.00;;;8.57;;
57822;SDS011;43650;48.064;20.624;2023-04-15T01:13:37;26.55;;;9.32;;
57822;SDS011;43650;48.064;20.624;2023-04-15T01:14:37;15.10;;;8.27;;
57822;SDS011;43650;48.064;20.624;2023-04-15T01:15:38;12.07;;;7.03;;
57822;SDS011;43650;48.064;20.624;2023-04-15T01:16:38;25.13;;;9.70;;
57822;SDS011;43650;48.064;20.624;2023-04-15T01:17:39;20.07;;;9.07;;
57822;SDS011;43650;48.064;20.624;2023-04-15T01:18:39;22.93;;;8.00;;
57822;SDS011;43650;48.064;20.624;2023-04-15T01:19:40;19.37;;;8.40;;
57822;SDS011;43650;48.064;20.624;2023-04-15T01:20:41;29.45;;;7.68;;
57822;SDS011;43650;48.064;20.624;2023-04-15T01:21:41;25.97;;;9.17;;
57822;SDS011;43650;48.064;20.624;2023-04-15T01:22:41;65.00;;;10.80;;
57822;SDS011;43650;48.064;20.624;2023-04-15T01:23:42;23.90;;;8.43;;
57822;SDS011;43650;48.064;20.624;2023-04-15T01:24:46;22.70;;;9.10;;
57822;SDS011;43650;48.064;20.624;2023-04-15T01:26:01;16.87;;;7.30;;
57822;SDS011;43650;48.064;20.624;2023-04-15T01:27:03;14.63;;;6.80;;
57822;SDS011;43650;48.064;20.624;2023-04-15T01:28:04;22.30;;;7.05;;
57822;SDS011;43650;48.064;20.624;2023-04-15T01:29:05;20.23;;;7.30;;
57822;SDS011;43650;48.064;20.624;2023-04-15T01:30:06;35.08;;;8.48;;
57822;SDS011;43650;48.064;20.624;2023-04-15T01:31:07;28.40;;;8.68;;
57822;SDS011;43650;48.064;20.624;2023-04-15T01:32:10;37.13;;;7.93;;
57822;SDS011;43650;48.064;20.624;2023-04-15T01:33:11;52.80;;;9.33;;
57822;SDS011;43650;48.064;20.624;2023-04-15T01:34:11;17.10;;;7.33;;
57822;SDS011;43650;48.064;20.624;2023-04-15T01:35:11;14.50;;;6.40;;
57822;SDS011;43650;48.064;20.624;2023-04-15T01:36:12;24.60;;;6.30;;
57822;SDS011;43650;48.064;20.624;2023-04-15T01:37:13;33.05;;;9.00;;
57822;SDS011;43650;48.064;20.624;2023-04-15T01:38:13;24.57;;;7.60;;
57822;SDS011;43650;48.064;20.624;2023-04-15T01:39:14;27.10;;;9.00;;
57822;SDS011;43650;48.064;20.624;2023-04-15T01:40:14;28.83;;;9.00;;
57822;SDS011;43650;48.064;20.624;2023-04-15T01:41:15;32.58;;;9.10;;
57822;SDS011;43650;48.064;20.624;2023-04-15T01:42:16;75.28;;;10.88;;
57822;SDS011;43650;48.064;20.624;2023-04-15T01:43:16;54.37;;;10.37;;
57822;SDS011;43650;48.064;20.624;2023-04-15T01:44:17;13.47;;;7.17;;
57822;SDS011;43650;48.064;20.624;2023-04-15T01:45:17;25.77;;;7.23;;
57822;SDS011;43650;48.064;20.624;2023-04-15T01:46:18;79.20;;;9.27;;
57822;SDS011;43650;48.064;20.624;2023-04-15T01:47:19;26.85;;;7.95;;
57822;SDS011;43650;48.064;20.624;2023-04-15T01:48:19;53.73;;;11.07;;
57822;SDS011;43650;48.064;20.624;2023-04-15T01:49:20;23.35;;;8.70;;
57822;SDS011;43650;48.064;20.624;2023-04-15T01:50:21;16.65;;;7.00;;
57822;SDS011;43650;48.064;20.624;2023-04-15T01:51:21;14.43;;;7.00;;
57822;SDS011;43650;48.064;20.624;2023-04-15T01:52:22;77.07;;;11.93;;
57822;SDS011;43650;48.064;20.624;2023-04-15T01:53:23;54.83;;;9.30;;
57822;SDS011;43650;48.064;20.624;2023-04-15T01:55:24;24.55;;;6.43;;
57822;SDS011;43650;48.064;20.624;2023-04-15T01:56:25;18.53;;;5.93;;
57822;SDS011;43650;48.064;20.624;2023-04-15T01:57:25;30.13;;;6.87;;
57822;SDS011;43650;48.064;20.624;2023-04-15T01:58:26;11.23;;;5.70;;
57822;SDS011;43650;48.064;20.624;2023-04-15T01:59:27;43.17;;;7.73;;
57822;SDS011;43650;48.064;20.624;2023-04-15T02:00:28;84.03;;;10.90;;
57822;SDS011;43650;48.064;20.624;2023-04-15T02:01:29;29.37;;;6.55;;
57822;SDS011;43650;48.064;20.624;2023-04-15T02:02:30;35.43;;;6.80;;
57822;SDS011;43650;48.064;20.624;2023-04-15T02:03:30;42.07;;;7.43;;
57822;SDS011;43650;48.064;20.624;2023-04-15T02:04:30;43.90;;;6.27;;
57822;SDS011;43650;48.064;20.624;2023-04-15T02:05:31;29.12;;;6.43;;
57822;SDS011;43650;48.064;20.624;2023-04-15T02:06:32;146.50;;;13.88;;
57822;SDS011;43650;48.064;20.624;2023-04-15T02:07:33;62.23;;;9.13;;
57822;SDS011;43650;48.064;20.624;2023-04-15T02:08:33;39.20;;;7.73;;
57822;SDS011;43650;48.064;20.624;2023-04-15T02:09:34;80.33;;;9.33;;
57822;SDS011;43650;48.064;20.624;2023-04-15T02:10:34;94.93;;;12.00;;
57822;SDS011;43650;48.064;20.624;2023-04-15T02:11:35;112.50;;;10.83;;
57822;SDS011;43650;48.064;20.624;2023-04-15T02:12:36;107.97;;;12.25;;
57822;SDS011;43650;48.064;20.624;2023-04-15T02:13:36;100.50;;;12.37;;
57822;SDS011;43650;48.064;20.624;2023-04-15T02:14:37;66.07;;;9.50;;
57822;SDS011;43650;48.064;20.624;2023-04-15T02:15:37;71.47;;;10.93;;
57822;SDS011;43650;48.064;20.624;2023-04-15T02:16:38;133.10;;;12.77;;
57822;SDS011;43650;48.064;20.624;2023-04-15T02:17:38;142.67;;;13.07;;
57822;SDS011;43650;48.064;20.624;2023-04-15T02:18:39;67.32;;;10.35;;
57822;SDS011;43650;48.064;20.624;2023-04-15T02:19:40;74.72;;;10.73;;
57822;SDS011;43650;48.064;20.624;2023-04-15T02:20:41;73.60;;;10.63;;
57822;SDS011;43650;48.064;20.624;2023-04-15T02:22:43;59.35;;;8.93;;
57822;SDS011;43650;48.064;20.624;2023-04-15T02:23:43;19.53;;;6.97;;
57822;SDS011;43650;48.064;20.624;2023-04-15T02:24:46;24.15;;;7.57;;
57822;SDS011;43650;48.064;20.624;2023-04-15T02:25:46;29.47;;;8.33;;
57822;SDS011;43650;48.064;20.624;2023-04-15T02:26:47;30.20;;;8.50;;
57822;SDS011;43650;48.064;20.624;2023-04-15T02:27:47;14.00;;;7.70;;
57822;SDS011;43650;48.064;20.624;2023-04-15T02:28:48;15.57;;;8.53;;
57822;SDS011;43650;48.064;20.624;2023-04-15T02:29:50;15.82;;;8.13;;
57822;SDS011;43650;48.064;20.624;2023-04-15T02:30:51;14.32;;;7.87;;
57822;SDS011;43650;48.064;20.624;2023-04-15T02:31:52;19.17;;;8.13;;
57822;SDS011;43650;48.064;20.624;2023-04-15T02:32:52;12.33;;;7.60;;
57822;SDS011;43650;48.064;20.624;2023-04-15T02:33:53;12.10;;;7.40;;
57822;SDS011;43650;48.064;20.624;2023-04-15T02:34:53;13.80;;;7.30;;
57822;SDS011;43650;48.064;20.624;2023-04-15T02:35:54;19.57;;;8.13;;
57822;SDS011;43650;48.064;20.624;2023-04-15T02:36:54;19.00;;;7.27;;
57822;SDS011;43650;48.064;20.624;2023-04-15T02:38:56;13.40;;;7.07;;
57822;SDS011;43650;48.064;20.624;2023-04-15T02:39:57;18.20;;;7.47;;
57822;SDS011;43650;48.064;20.624;2023-04-15T02:40:57;15.73;;;8.63;;
57822;SDS011;43650;48.064;20.624;2023-04-15T02:41:58;14.60;;;7.43;;
57822;SDS011;43650;48.064;20.624;2023-04-15T02:42:59;14.15;;;7.53;;
57822;SDS011;43650;48.064;20.624;2023-04-15T02:44:00;13.02;;;7.53;;
57822;SDS011;43650;48.064;20.624;2023-04-15T02:45:00;18.47;;;8.10;;
57822;SDS011;43650;48.064;20.624;2023-04-15T02:46:01;19.23;;;8.43;;
57822;SDS011;43650;48.064;20.624;2023-04-15T02:47:01;23.73;;;8.60;;
57822;SDS011;43650;48.064;20.624;2023-04-15T02:48:03;15.88;;;7.82;;
57822;SDS011;43650;48.064;20.624;2023-04-15T02:50:10;21.37;;;7.07;;
57822;SDS011;43650;48.064;20.624;2023-04-15T02:51:12;11.18;;;6.25;;
57822;SDS011;43650;48.064;20.624;2023-04-15T02:52:18;13.10;;;6.68;;
57822;SDS011;43650;48.064;20.624;2023-04-15T02:53:19;16.12;;;7.43;;
57822;SDS011;43650;48.064;20.624;2023-04-15T02:54:20;11.33;;;6.97;;
57822;SDS011;43650;48.064;20.624;2023-04-15T02:55:24;16.00;;;7.32;;
57822;SDS011;43650;48.064;20.624;2023-04-15T02:56:24;12.73;;;6.62;;
57822;SDS011;43650;48.064;20.624;2023-04-15T02:57:26;12.95;;;6.47;;
57822;SDS011;43650;48.064;20.624;2023-04-15T02:58:30;15.57;;;7.32;;
57822;SDS011;43650;48.064;20.624;2023-04-15T02:59:31;12.43;;;5.80;;
57822;SDS011;43650;48.064;20.624;2023-04-15T03:00:31;12.60;;;6.70;;
57822;SDS011;43650;48.064;20.624;2023-04-15T03:01:32;24.43;;;7.70;;
57822;SDS011;43650;48.064;20.624;2023-04-15T03:02:33;12.50;;;7.27;;
57822;SDS011;43650;48.064;20.624;2023-04-15T03:03:35;24.55;;;7.90;;
57822;SDS011;43650;48.064;20.624;2023-04-15T03:04:35;21.83;;;7.30;;
57822;SDS011;43650;48.064;20.624;2023-04-15T03:05:36;19.20;;;7.47;;
57822;SDS011;43650;48.064;20.624;2023-04-15T03:06:38;24.60;;;7.50;;
57822;SDS011;43650;48.064;20.624;2023-04-15T03:07:38;13.50;;;5.97;;
57822;SDS011;43650;48.064;20.624;2023-04-15T03:08:42;12.40;;;5.93;;
57822;SDS011;43650;48.064;20.624;2023-04-15T03:09:42;12.83;;;6.33;;
57822;SDS011;43650;48.064;20.624;2023-04-15T03:11:44;11.43;;;6.12;;
57822;SDS011;43650;48.064;20.624;2023-04-15T03:12:45;10.03;;;5.73;;
57822;SDS011;43650;48.064;20.624;2023-04-15T03:13:45;12.70;;;6.20;;
57822;SDS011;43650;48.064;20.624;2023-04-15T03:14:46;13.05;;;6.75;;
57822;SDS011;43650;48.064;20.624;2023-04-15T03:15:46;10.13;;;5.53;;
57822;SDS011;43650;48.064;20.624;2023-04-15T03:16:47;10.60;;;5.53;;
57822;SDS011;43650;48.064;20.624;2023-04-15T03:17:49;12.85;;;6.03;;
57822;SDS011;43650;48.064;20.624;2023-04-15T03:18:50;11.53;;;6.23;;
57822;SDS011;43650;48.064;20.624;2023-04-15T03:19:50;10.00;;;6.03;;
57822;SDS011;43650;48.064;20.624;2023-04-15T03:20:50;13.37;;;5.43;;
57822;SDS011;43650;48.064;20.624;2023-04-15T03:21:51;12.97;;;6.23;;
57822;SDS011;43650;48.064;20.624;2023-04-15T03:22:51;8.73;;;5.20;;
57822;SDS011;43650;48.064;20.624;2023-04-15T03:23:52;11.43;;;6.33;;
57822;SDS011;43650;48.064;20.624;2023-04-15T03:24:52;9.87;;;5.20;;
57822;SDS011;43650;48.064;20.624;2023-04-15T03:25:53;8.93;;;4.90;;
57822;SDS011;43650;48.064;20.624;2023-04-15T03:26:56;11.77;;;6.03;;
57822;SDS011;43650;48.064;20.624;2023-04-15T03:27:56;8.63;;;4.55;;
57822;SDS011;43650;48.064;20.624;2023-04-15T03:28:57;10.00;;;4.80;;
57822;SDS011;43650;48.064;20.624;2023-04-15T03:29:57;11.40;;;5.47;;
57822;SDS011;43650;48.064;20.624;2023-04-15T03:30:58;9.47;;;4.53;;
57822;SDS011;43650;48.064;20.624;2023-04-15T03:31:59;13.98;;;5.43;;
57822;SDS011;43650;48.064;20.624;2023-04-15T03:32:59;9.53;;;4.93;;
57822;SDS011;43650;48.064;20.624;2023-04-15T03:34:00;13.57;;;5.37;;
57822;SDS011;43650;48.064;20.624;2023-04-15T03:35:00;10.80;;;5.07;;
57822;SDS011;43650;48.064;20.624;2023-04-15T03:36:01;10.30;;;4.80;;
57822;SDS011;43650;48.064;20.624;2023-04-15T03:37:01;11.80;;;5.50;;
57822;SDS011;43650;48.064;20.624;2023-04-15T03:38:02;9.43;;;4.63;;
57822;SDS011;43650;48.064;20.624;2023-04-15T03:39:02;7.60;;;4.22;;
57822;SDS011;43650;48.064;20.624;2023-04-15T03:40:03;9.35;;;4.10;;
57822;SDS011;43650;48.064;20.624;2023-04-15T03:41:03;8.52;;;4.05;;
57822;SDS011;43650;48.064;20.624;2023-04-15T03:42:04;7.73;;;3.90;;
57822;SDS011;43650;48.064;20.624;2023-04-15T03:43:05;10.30;;;4.00;;
57822;SDS011;43650;48.064;20.624;2023-04-15T03:44:05;6.70;;;4.43;;
57822;SDS011;43650;48.064;20.624;2023-04-15T03:45:06;6.83;;;4.17;;
57822;SDS011;43650;48.064;20.624;2023-04-15T03:46:07;6.85;;;3.50;;
57822;SDS011;43650;48.064;20.624;2023-04-15T03:47:07;8.63;;;4.77;;
57822;SDS011;43650;48.064;20.624;2023-04-15T03:48:07;6.80;;;3.30;;
57822;SDS011;43650;48.064;20.624;2023-04-15T03:49:08;8.67;;;3.03;;
57822;SDS011;43650;48.064;20.624;2023-04-15T03:50:09;5.13;;;3.23;;
57822;SDS011;43650;48.064;20.624;2023-04-15T03:51:10;5.03;;;3.12;;
57822;SDS011;43650;48.064;20.624;2023-04-15T03:52:10;7.30;;;3.22;;
57822;SDS011;43650;48.064;20.624;2023-04-15T03:53:11;5.70;;;3.17;;
57822;SDS011;43650;48.064;20.624;2023-04-15T03:54:11;6.03;;;3.03;;
57822;SDS011;43650;48.064;20.624;2023-04-15T03:55:14;6.70;;;3.35;;
57822;SDS011;43650;48.064;20.624;2023-04-15T03:56:14;6.93;;;3.10;;
57822;SDS011;43650;48.064;20.624;2023-04-15T03:57:15;5.10;;;3.07;;
57822;SDS011;43650;48.064;20.624;2023-04-15T03:58:15;7.07;;;2.60;;
57822;SDS011;43650;48.064;20.624;2023-04-15T03:59:16;6.27;;;3.20;;
57822;SDS011;43650;48.064;20.624;2023-04-15T04:00:16;5.60;;;3.00;;
57822;SDS011;43650;48.064;20.624;2023-04-15T04:01:17;4.67;;;3.07;;
57822;SDS011;43650;48.064;20.624;2023-04-15T04:02:18;5.68;;;3.65;;
57822;SDS011;43650;48.064;20.624;2023-04-15T04:03:18;7.50;;;3.17;;
57822;SDS011;43650;48.064;20.624;2023-04-15T04:04:18;8.60;;;4.20;;
57822;SDS011;43650;48.064;20.624;2023-04-15T04:05:19;11.17;;;6.17;;
57822;SDS011;43650;48.064;20.624;2023-04-15T04:06:19;11.33;;;5.73;;
57822;SDS011;43650;48.064;20.624;2023-04-15T04:07:21;12.27;;;6.00;;
57822;SDS011;43650;48.064;20.624;2023-04-15T04:08:22;10.68;;;5.72;;
57822;SDS011;43650;48.064;20.624;2023-04-15T04:09:23;10.43;;;4.97;;
57822;SDS011;43650;48.064;20.624;2023-04-15T04:10:24;6.00;;;3.80;;
57822;SDS011;43650;48.064;20.624;2023-04-15T04:11:25;8.55;;;4.65;;
57822;SDS011;43650;48.064;20.624;2023-04-15T04:12:27;5.10;;;3.33;;
57822;SDS011;43650;48.064;20.624;2023-04-15T04:13:27;5.53;;;3.37;;
57822;SDS011;43650;48.064;20.624;2023-04-15T04:14:28;5.37;;;3.50;;
57822;SDS011;43650;48.064;20.624;2023-04-15T04:15:28;5.25;;;3.35;;
57822;SDS011;43650;48.064;20.624;2023-04-15T04:16:29;5.53;;;3.43;;
57822;SDS011;43650;48.064;20.624;2023-04-15T04:17:29;6.65;;;4.18;;
57822;SDS011;43650;48.064;20.624;2023-04-15T04:18:33;6.40;;;4.03;;
57822;SDS011;43650;48.064;20.624;2023-04-15T04:19:33;15.80;;;6.37;;
57822;SDS011;43650;48.064;20.624;2023-04-15T04:20:34;15.80;;;6.70;;
57822;SDS011;43650;48.064;20.624;2023-04-15T04:21:34;13.97;;;5.10;;
57822;SDS011;43650;48.064;20.624;2023-04-15T04:22:38;14.57;;;5.37;;
57822;SDS011;43650;48.064;20.624;2023-04-15T04:23:39;13.70;;;6.05;;
57822;SDS011;43650;48.064;20.624;2023-04-15T04:24:40;14.67;;;5.97;;
57822;SDS011;43650;48.064;20.624;2023-04-15T04:25:40;11.43;;;4.67;;
57822;SDS011;43650;48.064;20.624;2023-04-15T04:26:41;15.15;;;4.18;;
57822;SDS011;43650;48.064;20.624;2023-04-15T04:27:41;9.07;;;6.00;;
57822;SDS011;43650;48.064;20.624;2023-04-15T04:28:41;8.33;;;3.17;;
57822;SDS011;43650;48.064;20.624;2023-04-15T04:29:42;8.03;;;4.07;;
57822;SDS011;43650;48.064;20.624;2023-04-15T04:30:43;29.40;;;9.50;;
57822;SDS011;43650;48.064;20.624;2023-04-15T04:31:43;28.30;;;10.63;;
57822;SDS011;43650;48.064;20.624;2023-04-15T04:32:44;19.03;;;8.00;;
57822;SDS011;43650;48.064;20.624;2023-04-15T04:33:44;17.48;;;6.78;;
57822;SDS011;43650;48.064;20.624;2023-04-15T04:34:45;21.40;;;7.57;;
57822;SDS011;43650;48.064;20.624;2023-04-15T04:35:46;18.92;;;7.68;;
57822;SDS011;43650;48.064;20.624;2023-04-15T04:36:46;18.03;;;6.77;;
57822;SDS011;43650;48.064;20.624;2023-04-15T04:37:46;11.87;;;4.90;;
57822;SDS011;43650;48.064;20.624;2023-04-15T04:38:47;19.10;;;8.43;;
57822;SDS011;43650;48.064;20.624;2023-04-15T04:39:47;14.50;;;6.30;;
57822;SDS011;43650;48.064;20.624;2023-04-15T04:40:48;13.87;;;5.40;;
57822;SDS011;43650;48.064;20.624;2023-04-15T04:41:48;15.93;;;5.20;;
57822;SDS011;43650;48.064;20.624;2023-04-15T04:42:51;13.10;;;5.72;;
57822;SDS011;43650;48.064;20.624;2023-04-15T04:43:51;10.90;;;6.40;;
57822;SDS011;43650;48.064;20.624;2023-04-15T04:44:51;13.00;;;6.20;;
57822;SDS011;43650;48.064;20.624;2023-04-15T04:45:52;10.25;;;4.35;;
57822;SDS011;43650;48.064;20.624;2023-04-15T04:46:53;11.90;;;5.00;;
57822;SDS011;43650;48.064;20.624;2023-04-15T04:47:53;8.50;;;4.00;;
57822;SDS011;43650;48.064;20.624;2023-04-15T04:48:53;9.27;;;3.67;;
57822;SDS011;43650;48.064;20.624;2023-04-15T04:49:54;8.97;;;4.00;;
57822;SDS011;43650;48.064;20.624;2023-04-15T04:50:54;9.33;;;3.73;;
57822;SDS011;43650;48.064;20.624;2023-04-15T04:51:55;4.93;;;3.40;;
57822;SDS011;43650;48.064;20.624;2023-04-15T04:52:56;7.60;;;2.53;;
57822;SDS011;43650;48.064;20.624;2023-04-15T04:53:56;8.47;;;4.37;;
57822;SDS011;43650;48.064;20.624;2023-04-15T04:54:57;8.65;;;3.92;;
57822;SDS011;43650;48.064;20.624;2023-04-15T04:55:58;8.77;;;3.73;;
57822;SDS011;43650;48.064;20.624;2023-04-15T04:56:58;7.62;;;3.10;;
57822;SDS011;43650;48.064;20.624;2023-04-15T04:57:59;7.15;;;3.20;;
57822;SDS011;43650;48.064;20.624;2023-04-15T04:59:00;4.33;;;2.17;;
57822;SDS011;43650;48.064;20.624;2023-04-15T05:00:01;6.53;;;2.87;;
57822;SDS011;43650;48.064;20.624;2023-04-15T05:01:03;10.27;;;3.60;;
57822;SDS011;43650;48.064;20.624;2023-04-15T05:02:04;5.37;;;3.63;;
57822;SDS011;43650;48.064;20.624;2023-04-15T05:03:05;6.93;;;3.28;;
57822;SDS011;43650;48.064;20.624;2023-04-15T05:04:05;6.72;;;2.08;;
57822;SDS011;43650;48.064;20.624;2023-04-15T05:05:06;7.03;;;2.87;;
57822;SDS011;43650;48.064;20.624;2023-04-15T05:06:07;10.63;;;5.00;;
57822;SDS011;43650;48.064;20.624;2023-04-15T05:07:08;11.12;;;3.85;;
57822;SDS011;43650;48.064;20.624;2023-04-15T05:08:08;3.53;;;1.87;;
57822;SDS011;43650;48.064;20.624;2023-04-15T05:09:09;21.43;;;8.90;;
57822;SDS011;43650;48.064;20.624;2023-04-15T05:10:10;25.93;;;9.60;;
57822;SDS011;43650;48.064;20.624;2023-04-15T05:11:10;39.85;;;17.77;;
57822;SDS011;43650;48.064;20.624;2023-04-15T05:12:11;26.83;;;9.90;;
57822;SDS011;43650;48.064;20.624;2023-04-15T05:13:14;13.55;;;5.85;;
57822;SDS011;43650;48.064;20.624;2023-04-15T05:14:14;25.27;;;9.20;;
57822;SDS011;43650;48.064;20.624;2023-04-15T05:15:14;17.50;;;7.50;;
57822;SDS011;43650;48.064;20.624;2023-04-15T05:16:15;14.47;;;6.30;;
57822;SDS011;43650;48.064;20.624;2023-04-15T05:17:16;16.80;;;5.78;;
57822;SDS011;43650;48.064;20.624;2023-04-15T05:18:16;60.47;;;19.17;;
57822;SDS011;43650;48.064;20.624;2023-04-15T05:19:17;28.07;;;9.53;;
57822;SDS011;43650;48.064;20.624;2023-04-15T05:20:17;12.97;;;5.53;;
57822;SDS011;43650;48.064;20.624;2023-04-15T05:21:18;17.80;;;8.37;;
57822;SDS011;43650;48.064;20.624;2023-04-15T05:22:19;15.50;;;5.60;;
57822;SDS011;43650;48.064;20.624;2023-04-15T05:23:19;16.50;;;6.40;;
57822;SDS011;43650;48.064;20.624;2023-04-15T05:24:20;14.43;;;5.80;;
57822;SDS011;43650;48.064;20.624;2023-04-15T05:25:21;13.07;;;4.90;;
57822;SDS011;43650;48.064;20.624;2023-04-15T05:26:22;5.45;;;3.08;;
57822;SDS011;43650;48.064;20.624;2023-04-15T05:27:23;3.42;;;1.80;;
57822;SDS011;43650;48.064;20.624;2023-04-15T05:28:23;16.60;;;7.03;;
57822;SDS011;43650;48.064;20.624;2023-04-15T05:29:24;45.70;;;20.17;;
57822;SDS011;43650;48.064;20.624;2023-04-15T05:30:25;31.02;;;15.68;;
57822;SDS011;43650;48.064;20.624;2023-04-15T05:31:25;25.53;;;10.00;;
57822;SDS011;43650;48.064;20.624;2023-04-15T05:32:26;30.27;;;12.63;;
57822;SDS011;43650;48.064;20.624;2023-04-15T05:33:26;25.13;;;11.17;;
57822;SDS011;43650;48.064;20.624;2023-04-15T05:34:26;12.73;;;6.00;;
57822;SDS011;43650;48.064;20.624;2023-04-15T05:35:27;26.90;;;11.53;;
57822;SDS011;43650;48.064;20.624;2023-04-15T05:36:27;23.73;;;8.47;;
57822;SDS011;43650;48.064;20.624;2023-04-15T05:37:28;23.17;;;10.83;;
57822;SDS011;43650;48.064;20.624;2023-04-15T05:38:28;17.00;;;7.80;;
57822;SDS011;43650;48.064;20.624;2023-04-15T05:39:29;15.30;;;5.50;;
57822;SDS011;43650;48.064;20.624;2023-04-15T05:40:31;10.07;;;5.10;;
57822;SDS011;43650;48.064;20.624;2023-04-15T05:41:31;12.90;;;4.70;;
57822;SDS011;43650;48.064;20.624;2023-04-15T05:42:32;8.63;;;3.63;;
57822;SDS011;43650;48.064;20.624;2023-04-15T05:43:34;9.57;;;5.10;;
57822;SDS011;43650;48.064;20.624;2023-04-15T05:44:34;28.60;;;9.30;;
57822;SDS011;43650;48.064;20.624;2023-04-15T05:45:35;44.43;;;17.00;;
57822;SDS011;43650;48.064;20.624;2023-04-15T05:46:35;34.10;;;11.73;;
57822;SDS011;43650;48.064;20.624;2023-04-15T05:47:36;25.67;;;8.70;;
57822;SDS011;43650;48.064;20.624;2023-04-15T05:48:36;33.00;;;10.52;;
57822;SDS011;43650;48.064;20.624;2023-04-15T05:49:37;39.20;;;12.63;;
57822;SDS011;43650;48.064;20.624;2023-04-15T05:50:39;47.60;;;17.03;;
57822;SDS011;43650;48.064;20.624;2023-04-15T05:51:41;32.78;;;11.75;;
57822;SDS011;43650;48.064;20.624;2023-04-15T05:52:41;40.23;;;13.60;;
57822;SDS011;43650;48.064;20.624;2023-04-15T05:53:41;60.80;;;22.03;;
57822;SDS011;43650;48.064;20.624;2023-04-15T05:54:42;24.80;;;9.83;;
57822;SDS011;43650;48.064;20.624;2023-04-15T05:55:42;21.53;;;9.63;;
57822;SDS011;43650;48.064;20.624;2023-04-15T05:56:43;44.17;;;18.00;;
57822;SDS011;43650;48.064;20.624;2023-04-15T05:57:43;15.23;;;7.40;;
57822;SDS011;43650;48.064;20.624;2023-04-15T05:58:44;18.13;;;6.87;;
57822;SDS011;43650;48.064;20.624;2023-04-15T05:59:44;17.47;;;8.33;;
57822;SDS011;43650;48.064;20.624;2023-04-15T06:00:45;22.70;;;9.33;;
57822;SDS011;43650;48.064;20.624;2023-04-15T06:01:45;19.60;;;8.60;;
57822;SDS011;43650;48.064;20.624;2023-04-15T06:02:46;9.07;;;5.22;;